sensor_id;sensor_type;location;lat;lon;timestamp;P1;durP1;ratioP1;P2;durP2;ratioP2
63316;SDS011;49822;41.468;13.560;2022-11-15T00:01:53;14.82;;;9.40;;
63316;SDS011;49822;41.468;13.560;2022-11-15T00:04:39;13.25;;;9.02;;
63316;SDS011;49822;41.468;13.560;2022-11-15T00:07:26;14.27;;;9.60;;
63316;SDS011;49822;41.468;13.560;2022-11-15T00:10:32;14.00;;;10.30;;
63316;SDS011;49822;41.468;13.560;2022-11-15T00:13:18;16.30;;;11.30;;
63316;SDS011;49822;41.468;13.560;2022-11-15T00:16:04;18.45;;;12.10;;
63316;SDS011;49822;41.468;13.560;2022-11-15T00:18:50;15.13;;;11.70;;
63316;SDS011;49822;41.468;13.560;2022-11-15T00:21:36;20.10;;;12.27;;
63316;SDS011;49822;41.468;13.560;2022-11-15T00:24:22;18.98;;;12.70;;
63316;SDS011;49822;41.468;13.560;2022-11-15T00:27:08;17.60;;;12.20;;
63316;SDS011;49822;41.468;13.560;2022-11-15T00:29:54;16.75;;;11.23;;
63316;SDS011;49822;41.468;13.560;2022-11-15T00:32:40;15.23;;;10.90;;
63316;SDS011;49822;41.468;13.560;2022-11-15T00:35:26;13.85;;;11.02;;
63316;SDS011;49822;41.468;13.560;2022-11-15T00:38:12;17.60;;;10.35;;
63316;SDS011;49822;41.468;13.560;2022-11-15T00:40:58;15.90;;;11.30;;
63316;SDS011;49822;41.468;13.560;2022-11-15T00:43:50;14.98;;;10.82;;
63316;SDS011;49822;41.468;13.560;2022-11-15T00:46:35;15.07;;;11.02;;
63316;SDS011;49822;41.468;13.560;2022-11-15T00:49:21;18.60;;;10.73;;
63316;SDS011;49822;41.468;13.560;2022-11-15T00:52:07;19.58;;;13.02;;
63316;SDS011;49822;41.468;13.560;2022-11-15T00:54:53;17.05;;;12.63;;
63316;SDS011;49822;41.468;13.560;2022-11-15T00:57:39;16.98;;;12.88;;
63316;SDS011;49822;41.468;13.560;2022-11-15T01:00:25;20.42;;;14.60;;
63316;SDS011;49822;41.468;13.560;2022-11-15T01:03:11;19.55;;;13.90;;
63316;SDS011;49822;41.468;13.560;2022-11-15T01:05:58;23.90;;;15.65;;
63316;SDS011;49822;41.468;13.560;2022-11-15T01:08:45;17.73;;;13.82;;
63316;SDS011;49822;41.468;13.560;2022-11-15T01:11:30;15.57;;;11.90;;
63316;SDS011;49822;41.468;13.560;2022-11-15T01:14:17;17.40;;;12.30;;
63316;SDS011;49822;41.468;13.560;2022-11-15T01:17:09;19.25;;;12.40;;
63316;SDS011;49822;41.468;13.560;2022-11-15T01:19:55;14.77;;;11.18;;
63316;SDS011;49822;41.468;13.560;2022-11-15T01:22:40;21.85;;;13.25;;
63316;SDS011;49822;41.468;13.560;2022-11-15T01:25:26;23.33;;;15.40;;
63316;SDS011;49822;41.468;13.560;2022-11-15T01:28:12;19.08;;;14.52;;
63316;SDS011;49822;41.468;13.560;2022-11-15T01:31:02;19.60;;;13.52;;
63316;SDS011;49822;41.468;13.560;2022-11-15T01:33:51;17.58;;;12.40;;
63316;SDS011;49822;41.468;13.560;2022-11-15T01:36:36;16.52;;;12.48;;
63316;SDS011;49822;41.468;13.560;2022-11-15T01:39:22;16.17;;;13.15;;
63316;SDS011;49822;41.468;13.560;2022-11-15T01:42:14;23.05;;;14.80;;
63316;SDS011;49822;41.468;13.560;2022-11-15T01:45:00;18.63;;;14.10;;
63316;SDS011;49822;41.468;13.560;2022-11-15T01:47:48;19.67;;;13.00;;
63316;SDS011;49822;41.468;13.560;2022-11-15T01:50:37;20.02;;;12.93;;
63316;SDS011;49822;41.468;13.560;2022-11-15T01:53:23;18.83;;;13.90;;
63316;SDS011;49822;41.468;13.560;2022-11-15T01:56:13;20.98;;;15.20;;
63316;SDS011;49822;41.468;13.560;2022-11-15T01:59:05;22.00;;;14.90;;
63316;SDS011;49822;41.468;13.560;2022-11-15T02:01:53;19.55;;;14.35;;
63316;SDS011;49822;41.468;13.560;2022-11-15T02:04:42;16.90;;;13.23;;
63316;SDS011;49822;41.468;13.560;2022-11-15T02:07:31;20.48;;;14.10;;
63316;SDS011;49822;41.468;13.560;2022-11-15T02:10:20;18.67;;;14.10;;
63316;SDS011;49822;41.468;13.560;2022-11-15T02:13:09;17.65;;;13.60;;
63316;SDS011;49822;41.468;13.560;2022-11-15T02:15:58;16.70;;;13.00;;
63316;SDS011;49822;41.468;13.560;2022-11-15T02:19:00;17.13;;;13.20;;
63316;SDS011;49822;41.468;13.560;2022-11-15T02:41:34;18.02;;;11.82;;
63316;SDS011;49822;41.468;13.560;2022-11-15T02:44:36;20.50;;;13.73;;
63316;SDS011;49822;41.468;13.560;2022-11-15T02:47:25;20.38;;;14.40;;
63316;SDS011;49822;41.468;13.560;2022-11-15T02:50:18;20.92;;;13.65;;
63316;SDS011;49822;41.468;13.560;2022-11-15T02:53:08;20.45;;;14.73;;
63316;SDS011;49822;41.468;13.560;2022-11-15T02:55:54;18.00;;;13.65;;
63316;SDS011;49822;41.468;13.560;2022-11-15T02:59:00;15.27;;;11.50;;
63316;SDS011;49822;41.468;13.560;2022-11-15T03:10:57;15.88;;;11.32;;
63316;SDS011;49822;41.468;13.560;2022-11-15T03:19:51;14.95;;;10.38;;
63316;SDS011;49822;41.468;13.560;2022-11-15T03:22:42;15.63;;;11.45;;
63316;SDS011;49822;41.468;13.560;2022-11-15T03:25:31;16.60;;;11.95;;
63316;SDS011;49822;41.468;13.560;2022-11-15T03:28:23;18.17;;;12.70;;
63316;SDS011;49822;41.468;13.560;2022-11-15T03:31:37;14.13;;;10.45;;
63316;SDS011;49822;41.468;13.560;2022-11-15T03:34:55;16.88;;;11.43;;
63316;SDS011;49822;41.468;13.560;2022-11-15T03:40:51;14.32;;;11.52;;
63316;SDS011;49822;41.468;13.560;2022-11-15T03:43:53;13.88;;;10.98;;
63316;SDS011;49822;41.468;13.560;2022-11-15T03:46:50;19.20;;;13.02;;
63316;SDS011;49822;41.468;13.560;2022-11-15T03:49:55;21.88;;;12.88;;
63316;SDS011;49822;41.468;13.560;2022-11-15T03:53:03;17.33;;;12.38;;
63316;SDS011;49822;41.468;13.560;2022-11-15T03:55:49;17.13;;;12.07;;
63316;SDS011;49822;41.468;13.560;2022-11-15T03:58:35;18.23;;;13.57;;
63316;SDS011;49822;41.468;13.560;2022-11-15T04:01:21;18.80;;;13.40;;
63316;SDS011;49822;41.468;13.560;2022-11-15T04:04:07;19.80;;;13.40;;
63316;SDS011;49822;41.468;13.560;2022-11-15T04:06:53;18.42;;;14.52;;
63316;SDS011;49822;41.468;13.560;2022-11-15T04:09:39;19.42;;;13.70;;
63316;SDS011;49822;41.468;13.560;2022-11-15T04:13:02;18.08;;;12.55;;
63316;SDS011;49822;41.468;13.560;2022-11-15T04:15:48;20.25;;;13.85;;
63316;SDS011;49822;41.468;13.560;2022-11-15T04:18:35;21.60;;;13.90;;
63316;SDS011;49822;41.468;13.560;2022-11-15T04:21:21;18.83;;;12.88;;
63316;SDS011;49822;41.468;13.560;2022-11-15T04:24:26;17.10;;;12.43;;
63316;SDS011;49822;41.468;13.560;2022-11-15T04:27:12;18.58;;;12.95;;
63316;SDS011;49822;41.468;13.560;2022-11-15T04:29:58;17.25;;;13.48;;
63316;SDS011;49822;41.468;13.560;2022-11-15T04:32:44;17.60;;;12.38;;
63316;SDS011;49822;41.468;13.560;2022-11-15T04:35:30;17.20;;;12.98;;
63316;SDS011;49822;41.468;13.560;2022-11-15T04:38:16;18.38;;;13.30;;
63316;SDS011;49822;41.468;13.560;2022-11-15T04:41:02;22.67;;;15.27;;
63316;SDS011;49822;41.468;13.560;2022-11-15T04:43:48;27.77;;;16.20;;
63316;SDS011;49822;41.468;13.560;2022-11-15T04:46:34;23.58;;;15.80;;
63316;SDS011;49822;41.468;13.560;2022-11-15T04:49:20;17.80;;;12.23;;
63316;SDS011;49822;41.468;13.560;2022-11-15T04:52:06;20.40;;;13.20;;
63316;SDS011;49822;41.468;13.560;2022-11-15T04:54:52;19.08;;;13.10;;
63316;SDS011;49822;41.468;13.560;2022-11-15T04:57:38;19.67;;;12.68;;
63316;SDS011;49822;41.468;13.560;2022-11-15T05:00:24;18.13;;;12.88;;
63316;SDS011;49822;41.468;13.560;2022-11-15T05:03:11;18.98;;;13.43;;
63316;SDS011;49822;41.468;13.560;2022-11-15T05:06:16;18.60;;;14.02;;
63316;SDS011;49822;41.468;13.560;2022-11-15T05:09:02;19.88;;;13.15;;
63316;SDS011;49822;41.468;13.560;2022-11-15T05:11:48;18.98;;;12.15;;
63316;SDS011;49822;41.468;13.560;2022-11-15T05:14:34;16.80;;;13.38;;
63316;SDS011;49822;41.468;13.560;2022-11-15T05:17:20;21.92;;;13.10;;
63316;SDS011;49822;41.468;13.560;2022-11-15T05:20:06;32.20;;;17.17;;
63316;SDS011;49822;41.468;13.560;2022-11-15T05:22:53;24.70;;;15.63;;
63316;SDS011;49822;41.468;13.560;2022-11-15T05:25:40;21.63;;;14.50;;
63316;SDS011;49822;41.468;13.560;2022-11-15T05:28:27;16.17;;;12.27;;
63316;SDS011;49822;41.468;13.560;2022-11-15T05:31:14;19.65;;;13.18;;
63316;SDS011;49822;41.468;13.560;2022-11-15T05:34:04;15.85;;;12.80;;
63316;SDS011;49822;41.468;13.560;2022-11-15T05:36:51;15.75;;;11.60;;
63316;SDS011;49822;41.468;13.560;2022-11-15T05:39:37;14.70;;;10.52;;
63316;SDS011;49822;41.468;13.560;2022-11-15T05:42:22;15.38;;;11.00;;
63316;SDS011;49822;41.468;13.560;2022-11-15T05:45:11;13.18;;;10.52;;
63316;SDS011;49822;41.468;13.560;2022-11-15T05:47:57;13.45;;;10.82;;
63316;SDS011;49822;41.468;13.560;2022-11-15T05:50:46;13.35;;;10.73;;
63316;SDS011;49822;41.468;13.560;2022-11-15T05:53:33;15.15;;;11.18;;
63316;SDS011;49822;41.468;13.560;2022-11-15T05:56:20;16.13;;;11.70;;
63316;SDS011;49822;41.468;13.560;2022-11-15T05:59:07;13.30;;;10.38;;
63316;SDS011;49822;41.468;13.560;2022-11-15T06:01:54;16.20;;;12.68;;
63316;SDS011;49822;41.468;13.560;2022-11-15T06:04:41;14.00;;;11.00;;
63316;SDS011;49822;41.468;13.560;2022-11-15T06:07:26;19.60;;;13.68;;
63316;SDS011;49822;41.468;13.560;2022-11-15T06:10:15;18.40;;;12.68;;
63316;SDS011;49822;41.468;13.560;2022-11-15T06:13:02;17.00;;;12.50;;
63316;SDS011;49822;41.468;13.560;2022-11-15T06:15:49;17.58;;;11.68;;
63316;SDS011;49822;41.468;13.560;2022-11-15T06:18:36;13.45;;;10.90;;
63316;SDS011;49822;41.468;13.560;2022-11-15T06:21:23;14.27;;;11.30;;
63316;SDS011;49822;41.468;13.560;2022-11-15T06:24:10;13.27;;;10.02;;
63316;SDS011;49822;41.468;13.560;2022-11-15T06:26:56;14.90;;;10.80;;
63316;SDS011;49822;41.468;13.560;2022-11-15T06:29:42;14.60;;;9.85;;
63316;SDS011;49822;41.468;13.560;2022-11-15T06:32:28;16.70;;;11.73;;
63316;SDS011;49822;41.468;13.560;2022-11-15T06:35:15;13.50;;;10.80;;
63316;SDS011;49822;41.468;13.560;2022-11-15T06:38:03;14.98;;;10.55;;
63316;SDS011;49822;41.468;13.560;2022-11-15T06:40:53;13.15;;;10.52;;
63316;SDS011;49822;41.468;13.560;2022-11-15T06:43:40;13.35;;;10.23;;
63316;SDS011;49822;41.468;13.560;2022-11-15T06:46:26;14.55;;;10.63;;
63316;SDS011;49822;41.468;13.560;2022-11-15T06:49:12;13.23;;;10.07;;
63316;SDS011;49822;41.468;13.560;2022-11-15T06:51:58;13.27;;;9.75;;
63316;SDS011;49822;41.468;13.560;2022-11-15T06:54:44;13.00;;;9.32;;
63316;SDS011;49822;41.468;13.560;2022-11-15T06:57:30;12.23;;;9.45;;
63316;SDS011;49822;41.468;13.560;2022-11-15T07:00:18;12.90;;;9.75;;
63316;SDS011;49822;41.468;13.560;2022-11-15T07:03:05;13.02;;;10.00;;
63316;SDS011;49822;41.468;13.560;2022-11-15T07:05:54;14.27;;;10.30;;
63316;SDS011;49822;41.468;13.560;2022-11-15T07:08:49;13.63;;;9.80;;
63316;SDS011;49822;41.468;13.560;2022-11-15T07:11:35;17.67;;;10.75;;
63316;SDS011;49822;41.468;13.560;2022-11-15T07:14:21;14.45;;;10.13;;
63316;SDS011;49822;41.468;13.560;2022-11-15T07:17:06;14.88;;;9.68;;
63316;SDS011;49822;41.468;13.560;2022-11-15T07:19:52;14.98;;;10.65;;
63316;SDS011;49822;41.468;13.560;2022-11-15T07:22:39;15.63;;;10.63;;
63316;SDS011;49822;41.468;13.560;2022-11-15T07:25:25;13.45;;;10.63;;
63316;SDS011;49822;41.468;13.560;2022-11-15T07:28:12;17.08;;;11.10;;
63316;SDS011;49822;41.468;13.560;2022-11-15T07:31:01;12.50;;;9.68;;
63316;SDS011;49822;41.468;13.560;2022-11-15T07:33:51;13.00;;;10.63;;
63316;SDS011;49822;41.468;13.560;2022-11-15T07:36:36;14.82;;;11.38;;
63316;SDS011;49822;41.468;13.560;2022-11-15T07:39:22;17.20;;;12.00;;
63316;SDS011;49822;41.468;13.560;2022-11-15T07:42:08;14.73;;;10.32;;
63316;SDS011;49822;41.468;13.560;2022-11-15T07:45:13;15.55;;;11.02;;
63316;SDS011;49822;41.468;13.560;2022-11-15T07:47:58;15.57;;;11.18;;
63316;SDS011;49822;41.468;13.560;2022-11-15T07:50:45;17.45;;;12.40;;
63316;SDS011;49822;41.468;13.560;2022-11-15T07:53:30;16.55;;;12.52;;
63316;SDS011;49822;41.468;13.560;2022-11-15T07:56:17;16.92;;;11.93;;
63316;SDS011;49822;41.468;13.560;2022-11-15T07:59:03;14.35;;;10.05;;
63316;SDS011;49822;41.468;13.560;2022-11-15T08:01:49;12.15;;;8.90;;
63316;SDS011;49822;41.468;13.560;2022-11-15T08:04:35;11.00;;;8.90;;
63316;SDS011;49822;41.468;13.560;2022-11-15T08:07:21;12.52;;;10.25;;
63316;SDS011;49822;41.468;13.560;2022-11-15T08:10:07;14.77;;;10.57;;
63316;SDS011;49822;41.468;13.560;2022-11-15T08:12:57;14.57;;;10.63;;
63316;SDS011;49822;41.468;13.560;2022-11-15T08:15:44;15.63;;;10.57;;
63316;SDS011;49822;41.468;13.560;2022-11-15T08:18:36;16.35;;;11.88;;
63316;SDS011;49822;41.468;13.560;2022-11-15T08:21:21;17.55;;;11.55;;
63316;SDS011;49822;41.468;13.560;2022-11-15T08:24:09;13.27;;;10.40;;
63316;SDS011;49822;41.468;13.560;2022-11-15T08:26:56;14.00;;;11.00;;
63316;SDS011;49822;41.468;13.560;2022-11-15T08:29:42;17.05;;;12.20;;
63316;SDS011;49822;41.468;13.560;2022-11-15T08:32:30;15.10;;;10.98;;
63316;SDS011;49822;41.468;13.560;2022-11-15T08:35:16;16.90;;;12.10;;
63316;SDS011;49822;41.468;13.560;2022-11-15T08:38:03;14.60;;;11.43;;
63316;SDS011;49822;41.468;13.560;2022-11-15T08:40:50;16.65;;;11.57;;
63316;SDS011;49822;41.468;13.560;2022-11-15T08:43:37;17.30;;;12.07;;
63316;SDS011;49822;41.468;13.560;2022-11-15T08:46:23;17.73;;;11.23;;
63316;SDS011;49822;41.468;13.560;2022-11-15T08:49:09;16.73;;;11.60;;
63316;SDS011;49822;41.468;13.560;2022-11-15T08:51:55;18.88;;;12.38;;
63316;SDS011;49822;41.468;13.560;2022-11-15T08:54:41;14.45;;;10.57;;
63316;SDS011;49822;41.468;13.560;2022-11-15T08:57:30;15.85;;;10.85;;
63316;SDS011;49822;41.468;13.560;2022-11-15T09:00:16;15.35;;;10.90;;
63316;SDS011;49822;41.468;13.560;2022-11-15T09:03:05;15.02;;;9.70;;
63316;SDS011;49822;41.468;13.560;2022-11-15T09:05:56;13.88;;;9.82;;
63316;SDS011;49822;41.468;13.560;2022-11-15T09:08:43;13.85;;;9.82;;
63316;SDS011;49822;41.468;13.560;2022-11-15T09:11:32;21.48;;;14.82;;
63316;SDS011;49822;41.468;13.560;2022-11-15T09:14:18;12.93;;;10.60;;
63316;SDS011;49822;41.468;13.560;2022-11-15T09:17:06;13.15;;;10.85;;
63316;SDS011;49822;41.468;13.560;2022-11-15T09:19:53;18.25;;;13.63;;
63316;SDS011;49822;41.468;13.560;2022-11-15T09:22:39;17.25;;;12.10;;
63316;SDS011;49822;41.468;13.560;2022-11-15T09:25:25;14.45;;;11.48;;
63316;SDS011;49822;41.468;13.560;2022-11-15T09:28:12;13.50;;;11.10;;
63316;SDS011;49822;41.468;13.560;2022-11-15T09:30:58;13.20;;;9.48;;
63316;SDS011;49822;41.468;13.560;2022-11-15T09:33:45;9.48;;;7.32;;
63316;SDS011;49822;41.468;13.560;2022-11-15T09:36:32;11.20;;;8.77;;
63316;SDS011;49822;41.468;13.560;2022-11-15T09:39:17;10.43;;;7.97;;
63316;SDS011;49822;41.468;13.560;2022-11-15T09:48:17;9.75;;;7.15;;
63316;SDS011;49822;41.468;13.560;2022-11-15T09:51:38;8.57;;;6.50;;
63316;SDS011;49822;41.468;13.560;2022-11-15T09:54:20;8.23;;;6.55;;
63316;SDS011;49822;41.468;13.560;2022-11-15T09:57:37;9.75;;;7.38;;
63316;SDS011;49822;41.468;13.560;2022-11-15T10:03:11;9.35;;;7.65;;
63316;SDS011;49822;41.468;13.560;2022-11-15T10:05:51;9.95;;;7.35;;
63316;SDS011;49822;41.468;13.560;2022-11-15T10:11:18;10.35;;;7.00;;
63316;SDS011;49822;41.468;13.560;2022-11-15T10:14:10;9.15;;;6.50;;
63316;SDS011;49822;41.468;13.560;2022-11-15T10:21:24;8.82;;;7.07;;
63316;SDS011;49822;41.468;13.560;2022-11-15T10:24:35;9.93;;;6.75;;
63316;SDS011;49822;41.468;13.560;2022-11-15T10:30:40;12.55;;;7.78;;
63316;SDS011;49822;41.468;13.560;2022-11-15T10:46:40;14.23;;;10.32;;
63316;SDS011;49822;41.468;13.560;2022-11-15T10:49:17;13.07;;;9.20;;
63316;SDS011;49822;41.468;13.560;2022-11-15T10:51:50;15.35;;;10.57;;
63316;SDS011;49822;41.468;13.560;2022-11-15T10:54:33;13.98;;;8.98;;
63316;SDS011;49822;41.468;13.560;2022-11-15T10:57:10;19.25;;;12.15;;
63316;SDS011;49822;41.468;13.560;2022-11-15T10:59:52;10.55;;;7.88;;
63316;SDS011;49822;41.468;13.560;2022-11-15T11:02:56;13.43;;;9.55;;
63316;SDS011;49822;41.468;13.560;2022-11-15T11:05:32;11.23;;;7.55;;
63316;SDS011;49822;41.468;13.560;2022-11-15T11:11:00;12.35;;;8.93;;
63316;SDS011;49822;41.468;13.560;2022-11-15T11:13:36;11.93;;;9.13;;
63316;SDS011;49822;41.468;13.560;2022-11-15T11:21:10;19.67;;;10.50;;
63316;SDS011;49822;41.468;13.560;2022-11-15T11:23:44;10.73;;;8.45;;
63316;SDS011;49822;41.468;13.560;2022-11-15T11:40:04;11.88;;;8.02;;
63316;SDS011;49822;41.468;13.560;2022-11-15T11:42:48;13.27;;;8.43;;
63316;SDS011;49822;41.468;13.560;2022-11-15T11:45:47;20.63;;;11.07;;
63316;SDS011;49822;41.468;13.560;2022-11-15T11:48:43;17.48;;;9.73;;
63316;SDS011;49822;41.468;13.560;2022-11-15T11:51:23;8.95;;;6.88;;
63316;SDS011;49822;41.468;13.560;2022-11-15T11:54:04;12.40;;;8.70;;
63316;SDS011;49822;41.468;13.560;2022-11-15T11:56:39;14.27;;;8.82;;
63316;SDS011;49822;41.468;13.560;2022-11-15T12:02:01;11.13;;;7.78;;
63316;SDS011;49822;41.468;13.560;2022-11-15T12:04:40;13.23;;;8.00;;
63316;SDS011;49822;41.468;13.560;2022-11-15T12:07:13;14.18;;;9.27;;
63316;SDS011;49822;41.468;13.560;2022-11-15T12:17:37;17.50;;;11.88;;
63316;SDS011;49822;41.468;13.560;2022-11-15T12:20:14;15.80;;;12.82;;
63316;SDS011;49822;41.468;13.560;2022-11-15T12:22:57;11.68;;;8.18;;
63316;SDS011;49822;41.468;13.560;2022-11-15T12:25:35;11.43;;;7.88;;
63316;SDS011;49822;41.468;13.560;2022-11-15T12:28:30;10.90;;;8.43;;
63316;SDS011;49822;41.468;13.560;2022-11-15T12:34:02;10.95;;;8.52;;
63316;SDS011;49822;41.468;13.560;2022-11-15T12:36:40;16.15;;;11.00;;
63316;SDS011;49822;41.468;13.560;2022-11-15T12:39:13;13.97;;;9.37;;
63316;SDS011;49822;41.468;13.560;2022-11-15T12:42:34;11.93;;;8.70;;
63316;SDS011;49822;41.468;13.560;2022-11-15T12:52:04;11.52;;;8.98;;
63316;SDS011;49822;41.468;13.560;2022-11-15T13:08:02;14.02;;;8.65;;
63316;SDS011;49822;41.468;13.560;2022-11-15T13:10:31;16.95;;;10.50;;
63316;SDS011;49822;41.468;13.560;2022-11-15T13:13:03;20.38;;;11.57;;
63316;SDS011;49822;41.468;13.560;2022-11-15T13:15:37;18.00;;;9.60;;
63316;SDS011;49822;41.468;13.560;2022-11-15T13:18:27;13.70;;;8.95;;
63316;SDS011;49822;41.468;13.560;2022-11-15T13:20:58;15.45;;;8.60;;
63316;SDS011;49822;41.468;13.560;2022-11-15T13:23:28;18.20;;;9.00;;
63316;SDS011;49822;41.468;13.560;2022-11-15T13:26:06;9.60;;;6.90;;
63316;SDS011;49822;41.468;13.560;2022-11-15T13:28:45;12.55;;;7.72;;
63316;SDS011;49822;41.468;13.560;2022-11-15T13:39:49;13.57;;;7.97;;
63316;SDS011;49822;41.468;13.560;2022-11-15T13:42:17;18.95;;;10.18;;
63316;SDS011;49822;41.468;13.560;2022-11-15T13:44:56;17.20;;;9.70;;
63316;SDS011;49822;41.468;13.560;2022-11-15T13:47:27;11.68;;;6.80;;
63316;SDS011;49822;41.468;13.560;2022-11-15T13:49:59;14.38;;;8.15;;
63316;SDS011;49822;41.468;13.560;2022-11-15T13:52:31;10.93;;;6.97;;
63316;SDS011;49822;41.468;13.560;2022-11-15T13:55:03;12.63;;;6.85;;
63316;SDS011;49822;41.468;13.560;2022-11-15T14:00:43;11.25;;;6.60;;
63316;SDS011;49822;41.468;13.560;2022-11-15T14:03:25;10.05;;;6.90;;
63316;SDS011;49822;41.468;13.560;2022-11-15T14:16:50;9.27;;;5.95;;
63316;SDS011;49822;41.468;13.560;2022-11-15T14:25:05;12.10;;;6.93;;
63316;SDS011;49822;41.468;13.560;2022-11-15T14:30:36;9.80;;;7.53;;
63316;SDS011;49822;41.468;13.560;2022-11-15T14:35:46;13.07;;;8.90;;
63316;SDS011;49822;41.468;13.560;2022-11-15T14:38:14;11.55;;;6.93;;
63316;SDS011;49822;41.468;13.560;2022-11-15T14:40:41;9.48;;;6.50;;
63316;SDS011;49822;41.468;13.560;2022-11-15T14:43:10;10.45;;;6.18;;
63316;SDS011;49822;41.468;13.560;2022-11-15T14:45:39;9.45;;;6.63;;
63316;SDS011;49822;41.468;13.560;2022-11-15T14:48:10;9.35;;;6.35;;
63316;SDS011;49822;41.468;13.560;2022-11-15T14:50:38;10.10;;;7.05;;
63316;SDS011;49822;41.468;13.560;2022-11-15T14:53:05;9.43;;;6.15;;
63316;SDS011;49822;41.468;13.560;2022-11-15T14:55:34;9.75;;;6.78;;
63316;SDS011;49822;41.468;13.560;2022-11-15T14:58:03;10.15;;;7.28;;
63316;SDS011;49822;41.468;13.560;2022-11-15T15:00:32;11.63;;;7.13;;
63316;SDS011;49822;41.468;13.560;2022-11-15T15:03:06;10.25;;;6.90;;
63316;SDS011;49822;41.468;13.560;2022-11-15T15:05:38;11.32;;;6.93;;
63316;SDS011;49822;41.468;13.560;2022-11-15T15:08:10;9.35;;;5.93;;
63316;SDS011;49822;41.468;13.560;2022-11-15T15:10:42;11.13;;;7.07;;
63316;SDS011;49822;41.468;13.560;2022-11-15T15:13:21;15.07;;;9.70;;
63316;SDS011;49822;41.468;13.560;2022-11-15T15:15:51;14.30;;;9.60;;
63316;SDS011;49822;41.468;13.560;2022-11-15T15:18:22;33.33;;;17.58;;
63316;SDS011;49822;41.468;13.560;2022-11-15T15:20:53;12.50;;;7.50;;
63316;SDS011;49822;41.468;13.560;2022-11-15T15:23:33;14.65;;;7.07;;
63316;SDS011;49822;41.468;13.560;2022-11-15T15:26:02;11.93;;;7.22;;
63316;SDS011;49822;41.468;13.560;2022-11-15T15:28:30;13.82;;;8.40;;
63316;SDS011;49822;41.468;13.560;2022-11-15T15:33:28;10.80;;;7.30;;
63316;SDS011;49822;41.468;13.560;2022-11-15T15:35:56;15.02;;;8.25;;
63316;SDS011;49822;41.468;13.560;2022-11-15T15:38:24;14.00;;;8.20;;
63316;SDS011;49822;41.468;13.560;2022-11-15T15:40:51;11.75;;;8.00;;
63316;SDS011;49822;41.468;13.560;2022-11-15T15:43:19;13.82;;;8.57;;
63316;SDS011;49822;41.468;13.560;2022-11-15T15:45:48;13.75;;;7.93;;
63316;SDS011;49822;41.468;13.560;2022-11-15T15:48:17;11.15;;;7.90;;
63316;SDS011;49822;41.468;13.560;2022-11-15T15:50:46;11.65;;;7.35;;
63316;SDS011;49822;41.468;13.560;2022-11-15T15:53:14;14.30;;;8.48;;
63316;SDS011;49822;41.468;13.560;2022-11-15T15:55:41;13.70;;;9.05;;
63316;SDS011;49822;41.468;13.560;2022-11-15T15:58:26;14.05;;;8.05;;
63316;SDS011;49822;41.468;13.560;2022-11-15T16:00:54;11.40;;;7.65;;
63316;SDS011;49822;41.468;13.560;2022-11-15T16:03:25;16.38;;;10.25;;
63316;SDS011;49822;41.468;13.560;2022-11-15T16:05:54;14.57;;;9.18;;
63316;SDS011;49822;41.468;13.560;2022-11-15T16:08:22;19.70;;;11.88;;
63316;SDS011;49822;41.468;13.560;2022-11-15T16:10:51;18.58;;;13.13;;
63316;SDS011;49822;41.468;13.560;2022-11-15T16:13:19;15.13;;;10.95;;
63316;SDS011;49822;41.468;13.560;2022-11-15T16:15:47;14.48;;;10.05;;
63316;SDS011;49822;41.468;13.560;2022-11-15T16:18:20;12.77;;;8.73;;
63316;SDS011;49822;41.468;13.560;2022-11-15T16:20:49;12.82;;;8.80;;
63316;SDS011;49822;41.468;13.560;2022-11-15T16:23:18;14.80;;;9.05;;
63316;SDS011;49822;41.468;13.560;2022-11-15T16:25:51;16.20;;;9.77;;
63316;SDS011;49822;41.468;13.560;2022-11-15T16:28:23;15.45;;;9.75;;
63316;SDS011;49822;41.468;13.560;2022-11-15T16:31:02;19.80;;;11.05;;
63316;SDS011;49822;41.468;13.560;2022-11-15T16:33:31;22.23;;;11.02;;
63316;SDS011;49822;41.468;13.560;2022-11-15T16:36:00;17.90;;;10.48;;
63316;SDS011;49822;41.468;13.560;2022-11-15T16:38:28;15.80;;;8.85;;
63316;SDS011;49822;41.468;13.560;2022-11-15T16:40:57;16.65;;;7.97;;
63316;SDS011;49822;41.468;13.560;2022-11-15T16:43:25;12.02;;;8.35;;
63316;SDS011;49822;41.468;13.560;2022-11-15T16:45:53;12.13;;;7.22;;
63316;SDS011;49822;41.468;13.560;2022-11-15T16:48:25;12.38;;;7.18;;
63316;SDS011;49822;41.468;13.560;2022-11-15T16:50:54;19.88;;;11.73;;
63316;SDS011;49822;41.468;13.560;2022-11-15T16:53:23;69.82;;;35.53;;
63316;SDS011;49822;41.468;13.560;2022-11-15T16:55:52;87.28;;;41.42;;
63316;SDS011;49822;41.468;13.560;2022-11-15T16:58:20;22.75;;;14.45;;
63316;SDS011;49822;41.468;13.560;2022-11-15T17:00:52;30.50;;;16.50;;
63316;SDS011;49822;41.468;13.560;2022-11-15T17:03:21;42.20;;;23.50;;
63316;SDS011;49822;41.468;13.560;2022-11-15T17:05:50;40.30;;;22.63;;
63316;SDS011;49822;41.468;13.560;2022-11-15T17:08:17;54.05;;;29.48;;
63316;SDS011;49822;41.468;13.560;2022-11-15T17:10:47;44.47;;;24.90;;
63316;SDS011;49822;41.468;13.560;2022-11-15T17:13:16;41.35;;;21.60;;
63316;SDS011;49822;41.468;13.560;2022-11-15T17:15:44;36.85;;;20.98;;
63316;SDS011;49822;41.468;13.560;2022-11-15T17:18:17;34.33;;;18.85;;
63316;SDS011;49822;41.468;13.560;2022-11-15T17:20:47;24.60;;;15.25;;
63316;SDS011;49822;41.468;13.560;2022-11-15T17:23:14;27.58;;;15.23;;
63316;SDS011;49822;41.468;13.560;2022-11-15T17:25:43;30.17;;;15.77;;
63316;SDS011;49822;41.468;13.560;2022-11-15T17:28:10;23.48;;;14.15;;
63316;SDS011;49822;41.468;13.560;2022-11-15T17:30:42;20.92;;;14.05;;
63316;SDS011;49822;41.468;13.560;2022-11-15T17:33:12;25.55;;;15.43;;
63316;SDS011;49822;41.468;13.560;2022-11-15T17:35:40;23.35;;;13.55;;
63316;SDS011;49822;41.468;13.560;2022-11-15T17:38:07;21.40;;;14.00;;
63316;SDS011;49822;41.468;13.560;2022-11-15T17:40:34;25.65;;;15.13;;
63316;SDS011;49822;41.468;13.560;2022-11-15T17:43:03;30.95;;;17.60;;
63316;SDS011;49822;41.468;13.560;2022-11-15T17:45:31;37.55;;;19.67;;
63316;SDS011;49822;41.468;13.560;2022-11-15T17:48:05;30.80;;;18.85;;
63316;SDS011;49822;41.468;13.560;2022-11-15T17:50:33;29.17;;;16.50;;
63316;SDS011;49822;41.468;13.560;2022-11-15T17:53:00;27.30;;;16.17;;
63316;SDS011;49822;41.468;13.560;2022-11-15T17:55:28;29.33;;;15.57;;
63316;SDS011;49822;41.468;13.560;2022-11-15T17:57:55;24.52;;;15.25;;
63316;SDS011;49822;41.468;13.560;2022-11-15T18:00:23;24.98;;;15.90;;
63316;SDS011;49822;41.468;13.560;2022-11-15T18:02:50;22.48;;;13.52;;
63316;SDS011;49822;41.468;13.560;2022-11-15T18:05:18;23.38;;;14.45;;
63316;SDS011;49822;41.468;13.560;2022-11-15T18:07:46;21.35;;;14.80;;
63316;SDS011;49822;41.468;13.560;2022-11-15T18:10:13;25.13;;;14.50;;
63316;SDS011;49822;41.468;13.560;2022-11-15T18:12:42;24.80;;;15.15;;
63316;SDS011;49822;41.468;13.560;2022-11-15T18:15:10;23.05;;;12.68;;
63316;SDS011;49822;41.468;13.560;2022-11-15T18:17:37;22.23;;;14.52;;
63316;SDS011;49822;41.468;13.560;2022-11-15T18:20:05;22.20;;;14.10;;
63316;SDS011;49822;41.468;13.560;2022-11-15T18:22:33;20.55;;;13.77;;